sensor_id;sensor_type;location;lat;lon;timestamp;P1;durP1;ratioP1;P2;durP2;ratioP2
22468;SDS011;11401;50.792;4.352;2023-01-15T00:02:17;7.20;;;2.42;;
22468;SDS011;11401;50.792;4.352;2023-01-15T00:04:44;4.45;;;2.80;;
22468;SDS011;11401;50.792;4.352;2023-01-15T00:07:11;2.72;;;1.60;;
22468;SDS011;11401;50.792;4.352;2023-01-15T00:09:38;8.82;;;2.40;;
22468;SDS011;11401;50.792;4.352;2023-01-15T00:12:05;4.32;;;2.03;;
22468;SDS011;11401;50.792;4.352;2023-01-15T00:14:32;7.05;;;2.70;;
22468;SDS011;11401;50.792;4.352;2023-01-15T00:16:59;9.18;;;2.30;;
22468;SDS011;11401;50.792;4.352;2023-01-15T00:19:26;7.82;;;2.08;;
22468;SDS011;11401;50.792;4.352;2023-01-15T00:21:53;5.55;;;2.22;;
22468;SDS011;11401;50.792;4.352;2023-01-15T00:24:22;4.22;;;2.08;;
22468;SDS011;11401;50.792;4.352;2023-01-15T00:27:09;7.85;;;2.38;;
22468;SDS011;11401;50.792;4.352;2023-01-15T00:29:55;5.70;;;2.55;;
22468;SDS011;11401;50.792;4.352;2023-01-15T00:32:22;6.32;;;2.13;;
22468;SDS011;11401;50.792;4.352;2023-01-15T00:34:53;4.80;;;2.00;;
22468;SDS011;11401;50.792;4.352;2023-01-15T00:37:21;4.40;;;1.65;;
22468;SDS011;11401;50.792;4.352;2023-01-15T00:39:48;6.47;;;1.73;;
22468;SDS011;11401;50.792;4.352;2023-01-15T00:42:16;2.75;;;1.83;;
22468;SDS011;11401;50.792;4.352;2023-01-15T00:44:43;5.15;;;2.10;;
22468;SDS011;11401;50.792;4.352;2023-01-15T00:47:12;5.05;;;1.83;;
22468;SDS011;11401;50.792;4.352;2023-01-15T00:49:40;9.68;;;2.30;;
22468;SDS011;11401;50.792;4.352;2023-01-15T00:52:08;2.20;;;1.77;;
22468;SDS011;11401;50.792;4.352;2023-01-15T00:54:36;5.32;;;1.55;;
22468;SDS011;11401;50.792;4.352;2023-01-15T00:57:03;5.97;;;1.80;;
22468;SDS011;11401;50.792;4.352;2023-01-15T00:59:29;5.10;;;1.80;;
22468;SDS011;11401;50.792;4.352;2023-01-15T01:01:57;8.90;;;2.22;;
22468;SDS011;11401;50.792;4.352;2023-01-15T01:04:25;5.10;;;1.60;;
22468;SDS011;11401;50.792;4.352;2023-01-15T01:06:52;8.00;;;2.05;;
22468;SDS011;11401;50.792;4.352;2023-01-15T01:09:19;6.43;;;2.13;;
22468;SDS011;11401;50.792;4.352;2023-01-15T01:11:47;5.93;;;2.22;;
22468;SDS011;11401;50.792;4.352;2023-01-15T01:14:15;6.53;;;2.25;;
22468;SDS011;11401;50.792;4.352;2023-01-15T01:16:42;5.00;;;1.80;;
22468;SDS011;11401;50.792;4.352;2023-01-15T01:19:10;7.90;;;1.60;;
22468;SDS011;11401;50.792;4.352;2023-01-15T01:21:40;6.47;;;1.75;;
22468;SDS011;11401;50.792;4.352;2023-01-15T01:24:10;4.80;;;1.92;;
22468;SDS011;11401;50.792;4.352;2023-01-15T01:26:38;5.45;;;2.78;;
22468;SDS011;11401;50.792;4.352;2023-01-15T01:29:05;8.00;;;1.88;;
22468;SDS011;11401;50.792;4.352;2023-01-15T01:31:32;5.72;;;1.67;;
22468;SDS011;11401;50.792;4.352;2023-01-15T01:33:59;8.30;;;1.70;;
22468;SDS011;11401;50.792;4.352;2023-01-15T01:36:28;4.97;;;2.00;;
22468;SDS011;11401;50.792;4.352;2023-01-15T01:39:00;3.13;;;2.08;;
22468;SDS011;11401;50.792;4.352;2023-01-15T01:41:30;4.30;;;1.70;;
22468;SDS011;11401;50.792;4.352;2023-01-15T01:43:58;3.88;;;1.55;;
22468;SDS011;11401;50.792;4.352;2023-01-15T01:46:29;3.83;;;1.50;;
22468;SDS011;11401;50.792;4.352;2023-01-15T01:49:05;5.97;;;1.95;;
22468;SDS011;11401;50.792;4.352;2023-01-15T01:51:58;4.50;;;1.50;;
22468;SDS011;11401;50.792;4.352;2023-01-15T01:54:24;4.30;;;1.52;;
22468;SDS011;11401;50.792;4.352;2023-01-15T01:56:54;4.72;;;1.73;;
22468;SDS011;11401;50.792;4.352;2023-01-15T01:59:21;8.07;;;1.98;;
22468;SDS011;11401;50.792;4.352;2023-01-15T02:01:51;3.58;;;1.60;;
22468;SDS011;11401;50.792;4.352;2023-01-15T02:04:20;4.82;;;1.52;;
22468;SDS011;11401;50.792;4.352;2023-01-15T02:06:49;5.82;;;2.10;;
22468;SDS011;11401;50.792;4.352;2023-01-15T02:09:17;2.40;;;1.65;;
22468;SDS011;11401;50.792;4.352;2023-01-15T02:11:44;4.85;;;1.30;;
22468;SDS011;11401;50.792;4.352;2023-01-15T02:14:13;6.45;;;2.05;;
22468;SDS011;11401;50.792;4.352;2023-01-15T02:17:05;5.03;;;1.90;;
22468;SDS011;11401;50.792;4.352;2023-01-15T02:22:18;3.88;;;1.48;;
22468;SDS011;11401;50.792;4.352;2023-01-15T02:28:08;7.22;;;1.70;;
22468;SDS011;11401;50.792;4.352;2023-01-15T02:30:43;7.70;;;1.83;;
22468;SDS011;11401;50.792;4.352;2023-01-15T02:33:25;8.07;;;2.10;;
22468;SDS011;11401;50.792;4.352;2023-01-15T02:35:58;8.05;;;2.25;;
22468;SDS011;11401;50.792;4.352;2023-01-15T02:38:43;3.75;;;1.63;;
22468;SDS011;11401;50.792;4.352;2023-01-15T02:41:14;4.45;;;1.63;;
22468;SDS011;11401;50.792;4.352;2023-01-15T02:43:46;5.85;;;1.65;;
22468;SDS011;11401;50.792;4.352;2023-01-15T02:46:19;4.32;;;1.67;;
22468;SDS011;11401;50.792;4.352;2023-01-15T02:48:52;4.32;;;1.17;;
22468;SDS011;11401;50.792;4.352;2023-01-15T02:51:22;3.17;;;1.35;;
22468;SDS011;11401;50.792;4.352;2023-01-15T02:53:55;3.20;;;1.40;;
22468;SDS011;11401;50.792;4.352;2023-01-15T02:56:25;3.33;;;1.65;;
22468;SDS011;11401;50.792;4.352;2023-01-15T02:58:56;2.30;;;1.67;;
22468;SDS011;11401;50.792;4.352;2023-01-15T03:01:30;5.50;;;1.70;;
22468;SDS011;11401;50.792;4.352;2023-01-15T03:06:40;5.22;;;1.60;;
22468;SDS011;11401;50.792;4.352;2023-01-15T03:09:10;4.07;;;1.48;;
22468;SDS011;11401;50.792;4.352;2023-01-15T03:11:43;3.97;;;1.60;;
22468;SDS011;11401;50.792;4.352;2023-01-15T03:14:22;5.28;;;2.03;;
22468;SDS011;11401;50.792;4.352;2023-01-15T03:17:08;4.78;;;1.70;;
22468;SDS011;11401;50.792;4.352;2023-01-15T03:19:47;5.35;;;1.50;;
22468;SDS011;11401;50.792;4.352;2023-01-15T03:22:31;5.90;;;2.10;;
22468;SDS011;11401;50.792;4.352;2023-01-15T03:25:09;4.45;;;1.30;;
22468;SDS011;11401;50.792;4.352;2023-01-15T03:27:45;3.60;;;1.60;;
22468;SDS011;11401;50.792;4.352;2023-01-15T03:30:16;4.97;;;1.60;;
22468;SDS011;11401;50.792;4.352;2023-01-15T03:32:47;2.85;;;1.50;;
22468;SDS011;11401;50.792;4.352;2023-01-15T03:38:44;4.55;;;1.60;;
22468;SDS011;11401;50.792;4.352;2023-01-15T03:41:43;7.28;;;1.60;;
22468;SDS011;11401;50.792;4.352;2023-01-15T03:52:49;3.75;;;1.73;;
22468;SDS011;11401;50.792;4.352;2023-01-15T03:58:18;1.65;;;1.40;;
22468;SDS011;11401;50.792;4.352;2023-01-15T04:00:51;2.08;;;1.42;;
22468;SDS011;11401;50.792;4.352;2023-01-15T04:03:22;4.43;;;1.50;;
22468;SDS011;11401;50.792;4.352;2023-01-15T04:05:51;4.10;;;1.63;;
22468;SDS011;11401;50.792;4.352;2023-01-15T04:08:23;1.60;;;1.17;;
22468;SDS011;11401;50.792;4.352;2023-01-15T04:10:55;4.32;;;1.60;;
22468;SDS011;11401;50.792;4.352;2023-01-15T04:13:30;2.63;;;1.15;;
22468;SDS011;11401;50.792;4.352;2023-01-15T04:15:59;4.60;;;1.48;;
22468;SDS011;11401;50.792;4.352;2023-01-15T04:18:26;3.17;;;1.05;;
22468;SDS011;11401;50.792;4.352;2023-01-15T04:20:55;5.85;;;1.67;;
22468;SDS011;11401;50.792;4.352;2023-01-15T04:23:22;3.33;;;1.05;;
22468;SDS011;11401;50.792;4.352;2023-01-15T04:25:49;5.40;;;1.48;;
22468;SDS011;11401;50.792;4.352;2023-01-15T04:28:16;2.03;;;1.08;;
22468;SDS011;11401;50.792;4.352;2023-01-15T04:30:43;1.88;;;1.00;;
22468;SDS011;11401;50.792;4.352;2023-01-15T04:33:12;3.03;;;1.00;;
22468;SDS011;11401;50.792;4.352;2023-01-15T04:35:39;6.63;;;1.38;;
22468;SDS011;11401;50.792;4.352;2023-01-15T04:38:06;3.38;;;1.40;;
22468;SDS011;11401;50.792;4.352;2023-01-15T04:40:33;3.10;;;1.20;;
22468;SDS011;11401;50.792;4.352;2023-01-15T04:43:18;1.20;;;1.05;;
22468;SDS011;11401;50.792;4.352;2023-01-15T04:46:04;3.75;;;1.27;;
22468;SDS011;11401;50.792;4.352;2023-01-15T04:48:31;5.22;;;1.30;;
22468;SDS011;11401;50.792;4.352;2023-01-15T04:51:01;3.20;;;1.30;;
22468;SDS011;11401;50.792;4.352;2023-01-15T04:53:29;2.00;;;1.10;;
22468;SDS011;11401;50.792;4.352;2023-01-15T04:56:00;1.80;;;1.00;;
22468;SDS011;11401;50.792;4.352;2023-01-15T04:58:28;2.10;;;1.10;;
22468;SDS011;11401;50.792;4.352;2023-01-15T05:00:56;1.75;;;0.98;;
22468;SDS011;11401;50.792;4.352;2023-01-15T05:03:26;1.60;;;1.10;;
22468;SDS011;11401;50.792;4.352;2023-01-15T05:05:54;2.28;;;1.10;;
22468;SDS011;11401;50.792;4.352;2023-01-15T05:08:21;3.88;;;1.27;;
22468;SDS011;11401;50.792;4.352;2023-01-15T05:10:48;3.33;;;1.08;;
22468;SDS011;11401;50.792;4.352;2023-01-15T05:13:15;2.88;;;1.00;;
22468;SDS011;11401;50.792;4.352;2023-01-15T05:15:42;3.95;;;1.10;;
22468;SDS011;11401;50.792;4.352;2023-01-15T05:18:11;3.30;;;1.23;;
22468;SDS011;11401;50.792;4.352;2023-01-15T05:20:41;2.63;;;1.40;;
22468;SDS011;11401;50.792;4.352;2023-01-15T05:23:08;2.45;;;1.17;;
22468;SDS011;11401;50.792;4.352;2023-01-15T05:25:35;4.35;;;1.10;;
22468;SDS011;11401;50.792;4.352;2023-01-15T05:28:03;1.77;;;1.00;;
22468;SDS011;11401;50.792;4.352;2023-01-15T05:30:30;4.07;;;1.63;;
22468;SDS011;11401;50.792;4.352;2023-01-15T05:32:57;3.72;;;1.50;;
22468;SDS011;11401;50.792;4.352;2023-01-15T05:35:24;2.78;;;1.10;;
22468;SDS011;11401;50.792;4.352;2023-01-15T05:37:51;2.65;;;1.20;;
22468;SDS011;11401;50.792;4.352;2023-01-15T05:40:18;5.40;;;1.02;;
22468;SDS011;11401;50.792;4.352;2023-01-15T05:42:45;1.50;;;1.05;;
22468;SDS011;11401;50.792;4.352;2023-01-15T05:45:12;5.07;;;1.30;;
22468;SDS011;11401;50.792;4.352;2023-01-15T05:47:39;4.45;;;1.67;;
22468;SDS011;11401;50.792;4.352;2023-01-15T05:50:06;1.48;;;0.80;;
22468;SDS011;11401;50.792;4.352;2023-01-15T05:52:33;2.88;;;1.02;;
22468;SDS011;11401;50.792;4.352;2023-01-15T05:55:00;1.45;;;0.98;;
22468;SDS011;11401;50.792;4.352;2023-01-15T05:57:27;2.03;;;0.98;;
22468;SDS011;11401;50.792;4.352;2023-01-15T05:59:54;2.05;;;1.15;;
22468;SDS011;11401;50.792;4.352;2023-01-15T06:02:21;1.15;;;0.70;;
22468;SDS011;11401;50.792;4.352;2023-01-15T06:04:48;2.20;;;1.20;;
22468;SDS011;11401;50.792;4.352;2023-01-15T06:07:15;3.95;;;1.20;;
22468;SDS011;11401;50.792;4.352;2023-01-15T06:09:43;3.33;;;1.35;;
22468;SDS011;11401;50.792;4.352;2023-01-15T06:12:10;0.82;;;0.82;;
22468;SDS011;11401;50.792;4.352;2023-01-15T06:14:37;2.33;;;1.27;;
22468;SDS011;11401;50.792;4.352;2023-01-15T06:17:04;2.72;;;1.48;;
22468;SDS011;11401;50.792;4.352;2023-01-15T06:19:31;1.55;;;0.80;;
22468;SDS011;11401;50.792;4.352;2023-01-15T06:21:58;1.92;;;1.10;;
22468;SDS011;11401;50.792;4.352;2023-01-15T06:24:25;1.25;;;0.85;;
22468;SDS011;11401;50.792;4.352;2023-01-15T06:26:52;1.55;;;0.70;;
22468;SDS011;11401;50.792;4.352;2023-01-15T06:29:19;2.00;;;0.82;;
22468;SDS011;11401;50.792;4.352;2023-01-15T06:31:46;2.85;;;1.38;;
22468;SDS011;11401;50.792;4.352;2023-01-15T06:34:15;3.53;;;1.02;;
22468;SDS011;11401;50.792;4.352;2023-01-15T06:36:42;3.25;;;1.38;;
22468;SDS011;11401;50.792;4.352;2023-01-15T06:39:09;2.63;;;1.20;;
22468;SDS011;11401;50.792;4.352;2023-01-15T06:41:36;3.05;;;1.23;;
22468;SDS011;11401;50.792;4.352;2023-01-15T06:44:22;1.75;;;1.00;;
22468;SDS011;11401;50.792;4.352;2023-01-15T06:47:12;4.30;;;1.10;;
22468;SDS011;11401;50.792;4.352;2023-01-15T06:49:50;1.50;;;0.98;;
22468;SDS011;11401;50.792;4.352;2023-01-15T06:52:20;2.10;;;1.00;;
22468;SDS011;11401;50.792;4.352;2023-01-15T06:54:48;3.15;;;1.30;;
22468;SDS011;11401;50.792;4.352;2023-01-15T06:57:15;4.80;;;1.50;;
22468;SDS011;11401;50.792;4.352;2023-01-15T06:59:44;5.20;;;1.60;;
22468;SDS011;11401;50.792;4.352;2023-01-15T07:02:11;3.17;;;1.13;;
22468;SDS011;11401;50.792;4.352;2023-01-15T07:04:38;3.40;;;1.92;;
22468;SDS011;11401;50.792;4.352;2023-01-15T07:07:05;4.32;;;1.45;;
22468;SDS011;11401;50.792;4.352;2023-01-15T07:09:32;1.60;;;1.50;;
22468;SDS011;11401;50.792;4.352;2023-01-15T07:11:59;3.15;;;1.30;;
22468;SDS011;11401;50.792;4.352;2023-01-15T07:14:26;4.20;;;1.20;;
22468;SDS011;11401;50.792;4.352;2023-01-15T07:16:53;5.65;;;1.23;;
22468;SDS011;11401;50.792;4.352;2023-01-15T07:19:21;4.90;;;1.17;;
22468;SDS011;11401;50.792;4.352;2023-01-15T07:21:48;3.08;;;1.20;;
22468;SDS011;11401;50.792;4.352;2023-01-15T07:24:15;2.85;;;1.50;;
22468;SDS011;11401;50.792;4.352;2023-01-15T07:26:43;2.55;;;1.45;;
22468;SDS011;11401;50.792;4.352;2023-01-15T07:29:11;1.55;;;1.13;;
22468;SDS011;11401;50.792;4.352;2023-01-15T07:31:39;4.15;;;1.30;;
22468;SDS011;11401;50.792;4.352;2023-01-15T07:34:06;4.40;;;1.17;;
22468;SDS011;11401;50.792;4.352;2023-01-15T07:36:34;2.83;;;1.30;;
22468;SDS011;11401;50.792;4.352;2023-01-15T07:39:02;8.55;;;2.03;;
22468;SDS011;11401;50.792;4.352;2023-01-15T07:41:30;4.65;;;1.38;;
22468;SDS011;11401;50.792;4.352;2023-01-15T07:44:16;3.67;;;1.15;;
22468;SDS011;11401;50.792;4.352;2023-01-15T07:47:02;4.18;;;1.20;;
22468;SDS011;11401;50.792;4.352;2023-01-15T07:49:52;4.63;;;1.55;;
22468;SDS011;11401;50.792;4.352;2023-01-15T07:52:21;4.53;;;1.33;;
22468;SDS011;11401;50.792;4.352;2023-01-15T07:54:48;3.25;;;1.73;;
22468;SDS011;11401;50.792;4.352;2023-01-15T07:57:19;5.63;;;1.40;;
22468;SDS011;11401;50.792;4.352;2023-01-15T07:59:48;5.68;;;1.45;;
22468;SDS011;11401;50.792;4.352;2023-01-15T08:02:15;5.43;;;1.52;;
22468;SDS011;11401;50.792;4.352;2023-01-15T08:04:43;3.50;;;1.38;;
22468;SDS011;11401;50.792;4.352;2023-01-15T08:07:10;7.78;;;1.70;;
22468;SDS011;11401;50.792;4.352;2023-01-15T08:09:38;3.50;;;1.27;;
22468;SDS011;11401;50.792;4.352;2023-01-15T08:12:05;1.55;;;1.10;;
22468;SDS011;11401;50.792;4.352;2023-01-15T08:14:51;2.35;;;1.30;;
22468;SDS011;11401;50.792;4.352;2023-01-15T08:17:36;3.20;;;1.27;;
22468;SDS011;11401;50.792;4.352;2023-01-15T08:20:05;3.65;;;1.30;;
22468;SDS011;11401;50.792;4.352;2023-01-15T08:22:34;3.83;;;1.30;;
22468;SDS011;11401;50.792;4.352;2023-01-15T08:25:01;3.33;;;1.20;;
22468;SDS011;11401;50.792;4.352;2023-01-15T08:27:28;2.50;;;1.38;;
22468;SDS011;11401;50.792;4.352;2023-01-15T08:29:58;4.30;;;1.48;;
22468;SDS011;11401;50.792;4.352;2023-01-15T08:32:25;4.10;;;1.63;;
22468;SDS011;11401;50.792;4.352;2023-01-15T08:34:52;3.17;;;1.20;;
22468;SDS011;11401;50.792;4.352;2023-01-15T08:37:19;2.45;;;1.10;;
22468;SDS011;11401;50.792;4.352;2023-01-15T08:39:49;2.97;;;1.33;;
22468;SDS011;11401;50.792;4.352;2023-01-15T08:42:20;2.80;;;1.05;;
22468;SDS011;11401;50.792;4.352;2023-01-15T08:44:47;9.05;;;1.65;;
22468;SDS011;11401;50.792;4.352;2023-01-15T08:47:15;6.28;;;1.60;;
22468;SDS011;11401;50.792;4.352;2023-01-15T08:49:43;4.97;;;1.60;;
22468;SDS011;11401;50.792;4.352;2023-01-15T08:52:11;8.10;;;1.38;;
22468;SDS011;11401;50.792;4.352;2023-01-15T08:54:38;5.47;;;1.90;;
22468;SDS011;11401;50.792;4.352;2023-01-15T08:57:07;7.10;;;1.77;;
22468;SDS011;11401;50.792;4.352;2023-01-15T08:59:35;5.55;;;2.20;;
22468;SDS011;11401;50.792;4.352;2023-01-15T09:02:02;4.63;;;1.23;;
22468;SDS011;11401;50.792;4.352;2023-01-15T09:04:29;5.80;;;1.55;;
22468;SDS011;11401;50.792;4.352;2023-01-15T09:06:56;2.92;;;1.58;;
22468;SDS011;11401;50.792;4.352;2023-01-15T09:09:23;6.03;;;1.58;;
22468;SDS011;11401;50.792;4.352;2023-01-15T09:11:50;4.20;;;1.30;;
22468;SDS011;11401;50.792;4.352;2023-01-15T09:14:17;4.07;;;1.20;;
22468;SDS011;11401;50.792;4.352;2023-01-15T09:17:04;3.83;;;1.45;;
22468;SDS011;11401;50.792;4.352;2023-01-15T09:19:31;4.93;;;1.40;;
22468;SDS011;11401;50.792;4.352;2023-01-15T09:21:58;3.83;;;1.23;;
22468;SDS011;11401;50.792;4.352;2023-01-15T09:24:25;6.47;;;1.40;;
22468;SDS011;11401;50.792;4.352;2023-01-15T09:26:52;6.03;;;1.35;;
22468;SDS011;11401;50.792;4.352;2023-01-15T09:29:20;2.65;;;1.10;;
22468;SDS011;11401;50.792;4.352;2023-01-15T09:31:47;3.22;;;1.20;;
22468;SDS011;11401;50.792;4.352;2023-01-15T09:34:13;5.63;;;1.45;;
22468;SDS011;11401;50.792;4.352;2023-01-15T09:36:40;2.83;;;1.30;;
22468;SDS011;11401;50.792;4.352;2023-01-15T09:39:08;4.90;;;1.15;;
22468;SDS011;11401;50.792;4.352;2023-01-15T09:44:38;2.63;;;1.30;;
22468;SDS011;11401;50.792;4.352;2023-01-15T09:53:27;5.32;;;1.48;;
22468;SDS011;11401;50.792;4.352;2023-01-15T09:56:01;4.43;;;1.60;;
22468;SDS011;11401;50.792;4.352;2023-01-15T09:58:34;4.25;;;1.50;;
22468;SDS011;11401;50.792;4.352;2023-01-15T10:01:03;5.05;;;1.48;;
22468;SDS011;11401;50.792;4.352;2023-01-15T10:03:34;2.65;;;1.00;;
22468;SDS011;11401;50.792;4.352;2023-01-15T10:06:26;1.40;;;1.30;;
22468;SDS011;11401;50.792;4.352;2023-01-15T10:09:07;3.90;;;1.20;;
22468;SDS011;11401;50.792;4.352;2023-01-15T10:11:44;1.63;;;1.17;;
22468;SDS011;11401;50.792;4.352;2023-01-15T10:17:20;2.20;;;1.20;;
22468;SDS011;11401;50.792;4.352;2023-01-15T10:19:53;3.33;;;1.13;;
22468;SDS011;11401;50.792;4.352;2023-01-15T10:22:25;3.53;;;1.00;;
22468;SDS011;11401;50.792;4.352;2023-01-15T10:25:17;1.92;;;1.10;;
22468;SDS011;11401;50.792;4.352;2023-01-15T10:27:50;3.03;;;1.30;;
22468;SDS011;11401;50.792;4.352;2023-01-15T10:32:52;1.70;;;1.10;;
22468;SDS011;11401;50.792;4.352;2023-01-15T10:41:36;2.40;;;1.23;;
22468;SDS011;11401;50.792;4.352;2023-01-15T10:44:11;5.47;;;1.35;;
22468;SDS011;11401;50.792;4.352;2023-01-15T10:46:52;2.25;;;1.05;;
22468;SDS011;11401;50.792;4.352;2023-01-15T10:49:26;4.13;;;1.38;;
22468;SDS011;11401;50.792;4.352;2023-01-15T10:52:12;4.65;;;0.95;;
22468;SDS011;11401;50.792;4.352;2023-01-15T10:55:00;2.03;;;1.17;;
22468;SDS011;11401;50.792;4.352;2023-01-15T10:57:43;2.80;;;1.15;;
22468;SDS011;11401;50.792;4.352;2023-01-15T11:00:36;7.90;;;1.48;;
22468;SDS011;11401;50.792;4.352;2023-01-15T11:03:07;2.65;;;1.20;;
22468;SDS011;11401;50.792;4.352;2023-01-15T11:05:40;2.08;;;1.20;;
22468;SDS011;11401;50.792;4.352;2023-01-15T11:08:13;3.40;;;1.35;;
22468;SDS011;11401;50.792;4.352;2023-01-15T11:14:41;3.03;;;1.40;;
22468;SDS011;11401;50.792;4.352;2023-01-15T11:17:30;3.00;;;1.10;;
22468;SDS011;11401;50.792;4.352;2023-01-15T11:20:27;2.88;;;1.15;;
22468;SDS011;11401;50.792;4.352;2023-01-15T11:23:13;2.33;;;1.13;;
22468;SDS011;11401;50.792;4.352;2023-01-15T11:25:49;1.95;;;0.90;;
22468;SDS011;11401;50.792;4.352;2023-01-15T11:31:02;4.40;;;1.20;;
22468;SDS011;11401;50.792;4.352;2023-01-15T11:33:29;3.78;;;1.40;;
22468;SDS011;11401;50.792;4.352;2023-01-15T11:35:58;5.25;;;1.42;;
22468;SDS011;11401;50.792;4.352;2023-01-15T11:38:28;4.45;;;1.65;;
22468;SDS011;11401;50.792;4.352;2023-01-15T11:41:02;2.38;;;1.05;;
22468;SDS011;11401;50.792;4.352;2023-01-15T11:43:30;4.25;;;1.30;;
22468;SDS011;11401;50.792;4.352;2023-01-15T11:46:26;2.08;;;1.17;;
22468;SDS011;11401;50.792;4.352;2023-01-15T11:49:15;2.47;;;1.17;;
22468;SDS011;11401;50.792;4.352;2023-01-15T11:52:04;3.90;;;1.63;;
22468;SDS011;11401;50.792;4.352;2023-01-15T11:54:44;2.28;;;1.08;;
22468;SDS011;11401;50.792;4.352;2023-01-15T11:57:27;3.85;;;1.00;;
22468;SDS011;11401;50.792;4.352;2023-01-15T11:59:57;2.90;;;1.02;;
22468;SDS011;11401;50.792;4.352;2023-01-15T12:02:38;2.35;;;1.20;;
22468;SDS011;11401;50.792;4.352;2023-01-15T12:05:14;1.27;;;1.05;;
22468;SDS011;11401;50.792;4.352;2023-01-15T12:07:42;1.80;;;1.15;;
22468;SDS011;11401;50.792;4.352;2023-01-15T12:10:21;1.58;;;0.80;;
22468;SDS011;11401;50.792;4.352;2023-01-15T12:13:53;4.00;;;1.10;;
22468;SDS011;11401;50.792;4.352;2023-01-15T12:16:42;2.78;;;1.25;;
22468;SDS011;11401;50.792;4.352;2023-01-15T12:27:25;6.35;;;1.42;;
22468;SDS011;11401;50.792;4.352;2023-01-15T12:30:55;2.30;;;1.23;;
22468;SDS011;11401;50.792;4.352;2023-01-15T12:33:19;2.33;;;1.08;;
22468;SDS011;11401;50.792;4.352;2023-01-15T12:41:25;2.45;;;0.90;;
22468;SDS011;11401;50.792;4.352;2023-01-15T12:44:21;2.38;;;0.93;;
22468;SDS011;11401;50.792;4.352;2023-01-15T12:47:35;6.45;;;1.40;;
22468;SDS011;11401;50.792;4.352;2023-01-15T12:50:22;4.63;;;1.30;;
22468;SDS011;11401;50.792;4.352;2023-01-15T12:52:53;2.03;;;1.20;;
22468;SDS011;11401;50.792;4.352;2023-01-15T12:55:39;2.95;;;1.10;;
22468;SDS011;11401;50.792;4.352;2023-01-15T12:58:22;2.45;;;1.10;;
22468;SDS011;11401;50.792;4.352;2023-01-15T13:00:54;4.18;;;1.20;;
22468;SDS011;11401;50.792;4.352;2023-01-15T13:06:45;4.78;;;1.58;;
22468;SDS011;11401;50.792;4.352;2023-01-15T13:11:56;7.57;;;0.90;;
22468;SDS011;11401;50.792;4.352;2023-01-15T13:14:23;4.35;;;1.58;;
22468;SDS011;11401;50.792;4.352;2023-01-15T13:20:02;12.43;;;1.60;;
22468;SDS011;11401;50.792;4.352;2023-01-15T13:22:53;15.98;;;2.20;;
22468;SDS011;11401;50.792;4.352;2023-01-15T13:40:05;4.57;;;1.10;;
22468;SDS011;11401;50.792;4.352;2023-01-15T13:42:45;2.33;;;0.93;;
22468;SDS011;11401;50.792;4.352;2023-01-15T13:48:01;3.55;;;1.23;;
22468;SDS011;11401;50.792;4.352;2023-01-15T13:50:41;2.28;;;1.13;;
22468;SDS011;11401;50.792;4.352;2023-01-15T13:53:38;3.47;;;1.30;;
22468;SDS011;11401;50.792;4.352;2023-01-15T13:56:11;2.15;;;1.10;;
22468;SDS011;11401;50.792;4.352;2023-01-15T13:58:52;3.92;;;1.20;;
22468;SDS011;11401;50.792;4.352;2023-01-15T14:04:06;2.17;;;1.27;;
22468;SDS011;11401;50.792;4.352;2023-01-15T14:06:51;4.53;;;1.50;;
22468;SDS011;11401;50.792;4.352;2023-01-15T14:15:18;5.38;;;1.35;;
22468;SDS011;11401;50.792;4.352;2023-01-15T14:35:02;2.30;;;1.20;;
22468;SDS011;11401;50.792;4.352;2023-01-15T14:37:44;2.47;;;1.33;;
22468;SDS011;11401;50.792;4.352;2023-01-15T14:40:24;2.22;;;1.15;;
22468;SDS011;11401;50.792;4.352;2023-01-15T14:42:55;2.70;;;1.17;;
22468;SDS011;11401;50.792;4.352;2023-01-15T14:45:35;3.47;;;1.50;;
22468;SDS011;11401;50.792;4.352;2023-01-15T14:51:07;1.20;;;1.10;;
22468;SDS011;11401;50.792;4.352;2023-01-15T14:54:07;3.70;;;1.35;;
22468;SDS011;11401;50.792;4.352;2023-01-15T14:56:39;2.45;;;1.25;;
22468;SDS011;11401;50.792;4.352;2023-01-15T14:59:40;1.77;;;1.30;;
22468;SDS011;11401;50.792;4.352;2023-01-15T15:02:17;1.50;;;1.10;;
22468;SDS011;11401;50.792;4.352;2023-01-15T15:04:52;1.83;;;1.40;;
22468;SDS011;11401;50.792;4.352;2023-01-15T15:07:22;3.60;;;1.58;;
22468;SDS011;11401;50.792;4.352;2023-01-15T15:09:55;2.42;;;1.23;;
22468;SDS011;11401;50.792;4.352;2023-01-15T15:12:44;1.65;;;1.10;;
22468;SDS011;11401;50.792;4.352;2023-01-15T15:21:06;2.55;;;1.10;;
22468;SDS011;11401;50.792;4.352;2023-01-15T15:23:44;3.08;;;1.05;;
22468;SDS011;11401;50.792;4.352;2023-01-15T15:31:43;3.35;;;1.52;;
22468;SDS011;11401;50.792;4.352;2023-01-15T15:34:16;1.63;;;1.00;;
22468;SDS011;11401;50.792;4.352;2023-01-15T15:36:48;2.75;;;1.30;;
22468;SDS011;11401;50.792;4.352;2023-01-15T15:39:18;1.20;;;1.10;;
22468;SDS011;11401;50.792;4.352;2023-01-15T15:41:50;2.90;;;1.67;;
22468;SDS011;11401;50.792;4.352;2023-01-15T15:47:36;3.97;;;1.23;;
22468;SDS011;11401;50.792;4.352;2023-01-15T15:50:27;2.25;;;1.42;;
22468;SDS011;11401;50.792;4.352;2023-01-15T15:52:57;1.25;;;1.08;;
22468;SDS011;11401;50.792;4.352;2023-01-15T15:55:25;1.50;;;1.40;;
22468;SDS011;11401;50.792;4.352;2023-01-15T15:58:02;1.75;;;1.35;;
22468;SDS011;11401;50.792;4.352;2023-01-15T16:00:37;1.88;;;1.10;;
22468;SDS011;11401;50.792;4.352;2023-01-15T16:03:13;1.90;;;1.20;;
22468;SDS011;11401;50.792;4.352;2023-01-15T16:05:55;1.42;;;1.10;;
22468;SDS011;11401;50.792;4.352;2023-01-15T16:08:31;2.20;;;1.10;;
22468;SDS011;11401;50.792;4.352;2023-01-15T16:11:10;1.42;;;1.10;;
22468;SDS011;11401;50.792;4.352;2023-01-15T16:13:42;3.42;;;2.00;;
22468;SDS011;11401;50.792;4.352;2023-01-15T16:16:11;6.07;;;1.30;;
22468;SDS011;11401;50.792;4.352;2023-01-15T16:18:42;2.45;;;1.85;;
22468;SDS011;11401;50.792;4.352;2023-01-15T16:21:16;3.42;;;1.45;;
22468;SDS011;11401;50.792;4.352;2023-01-15T16:26:22;4.72;;;1.65;;
22468;SDS011;11401;50.792;4.352;2023-01-15T16:28:55;2.65;;;1.42;;
22468;SDS011;11401;50.792;4.352;2023-01-15T16:31:25;3.38;;;1.90;;
22468;SDS011;11401;50.792;4.352;2023-01-15T16:33:54;5.18;;;2.15;;
22468;SDS011;11401;50.792;4.352;2023-01-15T16:36:23;4.10;;;1.90;;
22468;SDS011;11401;50.792;4.352;2023-01-15T16:38:52;6.30;;;2.08;;
22468;SDS011;11401;50.792;4.352;2023-01-15T16:41:24;5.38;;;3.33;;
22468;SDS011;11401;50.792;4.352;2023-01-15T16:43:55;4.15;;;1.85;;
22468;SDS011;11401;50.792;4.352;2023-01-15T16:46:31;5.13;;;2.20;;
22468;SDS011;11401;50.792;4.352;2023-01-15T16:49:18;4.07;;;2.10;;
22468;SDS011;11401;50.792;4.352;2023-01-15T16:51:52;3.63;;;2.30;;
22468;SDS011;11401;50.792;4.352;2023-01-15T16:56:59;2.92;;;2.17;;
22468;SDS011;11401;50.792;4.352;2023-01-15T17:02:05;4.40;;;2.20;;
22468;SDS011;11401;50.792;4.352;2023-01-15T17:04:40;4.60;;;2.40;;
22468;SDS011;11401;50.792;4.352;2023-01-15T17:09:50;3.42;;;2.00;;
22468;SDS011;11401;50.792;4.352;2023-01-15T17:12:27;2.85;;;2.05;;
22468;SDS011;11401;50.792;4.352;2023-01-15T17:17:40;4.97;;;2.45;;
22468;SDS011;11401;50.792;4.352;2023-01-15T17:20:08;7.32;;;2.97;;
22468;SDS011;11401;50.792;4.352;2023-01-15T17:22:39;3.40;;;2.33;;
22468;SDS011;11401;50.792;4.352;2023-01-15T17:25:26;2.13;;;1.95;;
22468;SDS011;11401;50.792;4.352;2023-01-15T17:27:57;4.93;;;2.72;;
22468;SDS011;11401;50.792;4.352;2023-01-15T17:30:26;2.95;;;2.38;;
22468;SDS011;11401;50.792;4.352;2023-01-15T17:32:57;3.90;;;2.10;;
22468;SDS011;11401;50.792;4.352;2023-01-15T17:35:27;4.38;;;2.33;;
22468;SDS011;11401;50.792;4.352;2023-01-15T17:38:00;3.97;;;2.60;;
22468;SDS011;11401;50.792;4.352;2023-01-15T17:40:28;2.95;;;2.20;;
22468;SDS011;11401;50.792;4.352;2023-01-15T17:42:55;3.80;;;2.55;;
22468;SDS011;11401;50.792;4.352;2023-01-15T17:45:25;4.47;;;2.30;;
22468;SDS011;11401;50.792;4.352;2023-01-15T17:47:54;7.93;;;2.53;;
22468;SDS011;11401;50.792;4.352;2023-01-15T17:50:21;8.20;;;2.42;;